エドモントン の空港の天気 - METARとTAF

エドモントン国際空港 ( CYEG / YEG ) - カナダ アルバータ州Edmonton Capital Region
飛行場実況気象(Metar)
観測時間07/17 03:00 MDT (07/17 09:00 UTC)
風向・風速東南東 3m/s
視程10km以上
天気現象
少しの雲 雲底高度 3350m
少しの雲 雲底高度 7620m
気温10℃
湿度94%
気圧1014.7hPa
METARCYEG 170900Z 11005KT 15SM FEW110 FEW250 10/09 A2997 RMK AC1CI1 AC TR CI TR SLP147 DENSITY ALT 2400FT
過去の天気等 Google飛行場航空写真 Wunderground天気予報

過去48時間のMETAR

飛行場予報(TAF)
発表時間: 7/17 02:38 MDT (7/17 08:38 UTC)
予報対象時間: 17日3時 MDT ~ 18日0時 MDT
風向・風速不定 2m/s
視程10km以上
少しの雲 雲底高度 2740m
17日10時 MDT から
風向・風速東 4m/s
視程10km以上
なし
17日12時 MDT ~ 17日14時 MDT に徐々に
少しの雲 雲底高度 2440m
全天の4割程度の雲 雲底高度 5490m
17日22時 MDT から
風向・風速東北東 5m/s
視程10km以上
全天の8割程度の雲 雲底高度 3050m
TAF CYEG 170838Z 1709/1806 VRB03KT P6SM FEW090
FM171600 09008KT P6SM SKC
BECMG 1718/1720 FEW080 SCT180
FM180400 07010KT P6SM BKN100 RMK NXT FCST BY 171200Z